Sophie — WDH2326 — position and weather

sailwx.info

Track history (hours):
 
Tides and Currents Weather Stations Pressure Air Temp Water Temp Dewpoint Dewpoint Depression Visibility Wind Speed Wind Dir Waves Ship Positions

Sophie

Owner: Huey, George H, Chino Valley, AZ. More information available from US FCC via Universal Licensing System and Coast Guard Vessel Documentation Center.

Last reported at 2017-Sep-15 16:12 UTC. Time now 2017-Sep-19 18:36 UTC.
Position N 38°51' W 076°27'.

Length 14 m.

Type: Sailing vessel. MMSI: 367596470.

Date/timePositionNaut miles runAvg speedWind from/ knotsBaromVisibWave heightAir tempDewpointWater temp
2017-Sep-15 16:12N 38°51' W 076°27'6 6.0
2017-Sep-15 15:11N 38°57' W 076°24'2 6.4
2017-Sep-15 14:53N 38°58' W 076°24'3 6.4
2017-Sep-15 14:24N 39°01' W 076°23'3 6.5
2017-Sep-15 14:00N 39°03' W 076°26'1 0.1
2017-Sep-14 19:30N 39°04' W 076°27'14 5.7
2017-Sep-14 17:01N 39°15' W 076°15'2 6.4
2017-Sep-14 16:43N 39°16' W 076°14'1 6.6
2017-Sep-14 16:30N 39°18' W 076°13'3 6.4
2017-Sep-14 15:58N 39°21' W 076°11'3 6.6
2017-Sep-14 15:30N 39°22' W 076°07'3 6.3
2017-Sep-14 15:00N 39°23' W 076°03'3 6.3
2017-Sep-14 14:30N 39°22' W 075°59'1 1.7
2017-Sep-14 14:00N 39°22' W 075°58'0 0.0
2017-Sep-13 19:45N 39°22' W 075°58'0 0.0
2017-Sep-13 19:30N 39°22' W 075°58'2 3.1
2017-Sep-13 19:00N 39°22' W 075°56'2 4.1
2017-Sep-13 18:29N 39°22' W 075°54'0 0.8
2017-Sep-13 18:00N 39°22' W 075°53'3 5.5
2017-Sep-13 17:29N 39°22' W 075°57'2 3.2
2017-Sep-13 16:59N 39°22' W 075°59'0 0.0
2017-Sep-13 16:29N 39°22' W 075°59'0 0.0
2017-Sep-12 23:36N 39°22' W 075°59'0 0.1
2017-Sep-12 23:30N 39°22' W 075°59'3 4.4
2017-Sep-12 22:53N 39°23' W 076°02'2 4.2
2017-Sep-12 22:30N 39°24' W 076°03'4 7.8
2017-Sep-12 22:00N 39°27' W 075°59'4 7.8
2017-Sep-12 21:31N 39°30' W 075°56'4 7.8
2017-Sep-12 21:00N 39°32' W 075°51'4 7.5
2017-Sep-12 20:30N 39°32' W 075°46'4 7.1
2017-Sep-12 20:00N 39°33' W 075°42'3 6.4
2017-Sep-12 19:30N 39°33' W 075°38'3 6.3
2017-Sep-12 19:00N 39°34' W 075°34'4 7.6
2017-Sep-12 18:30N 39°30' W 075°33'4 8.1
2017-Sep-12 18:00N 39°26' W 075°32'4 8.0
2017-Sep-12 17:30N 39°23' W 075°28'4 7.6
2017-Sep-12 17:00N 39°20' W 075°25'4 7.3
2017-Sep-12 16:30N 39°17' W 075°23'4 7.7
2017-Sep-12 16:00N 39°14' W 075°20'4 7.5
2017-Sep-12 15:30N 39°10' W 075°18'4 7.1
2017-Sep-12 15:00N 39°07' W 075°16'3 6.6
2017-Sep-12 14:31N 39°04' W 075°14'4 6.8
2017-Sep-12 13:57N 39°01' W 075°13'3 6.7
2017-Sep-12 13:28N 38°58' W 075°11'3 6.6
2017-Sep-12 13:00N 38°55' W 075°09'8 2.0
2017-Sep-12 09:10N 38°48' W 075°06'0 0.0
2017-Sep-12 08:58N 38°48' W 075°06'0 0.0
2017-Sep-12 08:28N 38°48' W 075°06'0 0.0
2017-Sep-12 07:58N 38°48' W 075°06'0 0.0
2017-Sep-12 07:28N 38°48' W 075°06'0 0.0
2017-Sep-12 06:58N 38°48' W 075°06'0 0.0
2017-Sep-12 06:13N 38°48' W 075°06'0 0.0
2017-Sep-12 05:01N 38°48' W 075°06'0 0.0
2017-Sep-12 04:58N 38°48' W 075°06'0 0.0
2017-Sep-12 04:28N 38°48' W 075°06'0 0.0
2017-Sep-12 03:52N 38°48' W 075°06'0 0.0
2017-Sep-12 03:19N 38°48' W 075°06'0 0.0
2017-Sep-12 02:58N 38°48' W 075°06'0 0.0
2017-Sep-12 02:04N 38°48' W 075°06'0 0.0
2017-Sep-12 01:55N 38°48' W 075°06'53 3.8
2017-Sep-11 12:01N 39°20' W 074°12'0 6.5
2017-Sep-11 11:58N 39°20' W 074°12'3 6.5
2017-Sep-11 11:28N 39°22' W 074°09'3 6.6
2017-Sep-11 10:57N 39°24' W 074°06'3 6.6
2017-Sep-11 10:28N 39°27' W 074°03'  
Track history (hours):
 
Tides and Currents Weather Stations Pressure Air Temp Water Temp Dewpoint Dewpoint Depression Visibility Wind Speed Wind Dir Waves Ship Positions

Sophie

Owner: Huey, George H, Chino Valley, AZ. More information available from US FCC via Universal Licensing System and Coast Guard Vessel Documentation Center.

Last reported at 2017-Sep-15 16:12 UTC. Time now 2017-Sep-19 18:36 UTC.
Position N 38°51' W 076°27'.

Length 14 m.

Type: Sailing vessel. MMSI: 367596470.

Date/timePositionNaut miles runAvg speedWind from/ knotsBaromVisibWave heightAir tempDewpointWater temp
2017-Sep-15 16:12N 38°51' W 076°27'6 6.0
2017-Sep-15 15:11N 38°57' W 076°24'2 6.4
2017-Sep-15 14:53N 38°58' W 076°24'3 6.4
2017-Sep-15 14:24N 39°01' W 076°23'3 6.5
2017-Sep-15 14:00N 39°03' W 076°26'1 0.1
2017-Sep-14 19:30N 39°04' W 076°27'14 5.7
2017-Sep-14 17:01N 39°15' W 076°15'2 6.4
2017-Sep-14 16:43N 39°16' W 076°14'1 6.6
2017-Sep-14 16:30N 39°18' W 076°13'3 6.4
2017-Sep-14 15:58N 39°21' W 076°11'3 6.6
2017-Sep-14 15:30N 39°22' W 076°07'3 6.3
2017-Sep-14 15:00N 39°23' W 076°03'3 6.3
2017-Sep-14 14:30N 39°22' W 075°59'1 1.7
2017-Sep-14 14:00N 39°22' W 075°58'0 0.0
2017-Sep-13 19:45N 39°22' W 075°58'0 0.0
2017-Sep-13 19:30N 39°22' W 075°58'2 3.1
2017-Sep-13 19:00N 39°22' W 075°56'2 4.1
2017-Sep-13 18:29N 39°22' W 075°54'0 0.8
2017-Sep-13 18:00N 39°22' W 075°53'3 5.5
2017-Sep-13 17:29N 39°22' W 075°57'2 3.2
2017-Sep-13 16:59N 39°22' W 075°59'0 0.0
2017-Sep-13 16:29N 39°22' W 075°59'0 0.0
2017-Sep-12 23:36N 39°22' W 075°59'0 0.1
2017-Sep-12 23:30N 39°22' W 075°59'3 4.4
2017-Sep-12 22:53N 39°23' W 076°02'2 4.2
2017-Sep-12 22:30N 39°24' W 076°03'4 7.8
2017-Sep-12 22:00N 39°27' W 075°59'4 7.8
2017-Sep-12 21:31N 39°30' W 075°56'4 7.8
2017-Sep-12 21:00N 39°32' W 075°51'4 7.5
2017-Sep-12 20:30N 39°32' W 075°46'4 7.1
2017-Sep-12 20:00N 39°33' W 075°42'3 6.4
2017-Sep-12 19:30N 39°33' W 075°38'3 6.3
2017-Sep-12 19:00N 39°34' W 075°34'4 7.6
2017-Sep-12 18:30N 39°30' W 075°33'4 8.1
2017-Sep-12 18:00N 39°26' W 075°32'4 8.0
2017-Sep-12 17:30N 39°23' W 075°28'4 7.6
2017-Sep-12 17:00N 39°20' W 075°25'4 7.3
2017-Sep-12 16:30N 39°17' W 075°23'4 7.7
2017-Sep-12 16:00N 39°14' W 075°20'4 7.5
2017-Sep-12 15:30N 39°10' W 075°18'4 7.1
2017-Sep-12 15:00N 39°07' W 075°16'3 6.6
2017-Sep-12 14:31N 39°04' W 075°14'4 6.8
2017-Sep-12 13:57N 39°01' W 075°13'3 6.7
2017-Sep-12 13:28N 38°58' W 075°11'3 6.6
2017-Sep-12 13:00N 38°55' W 075°09'8 2.0
2017-Sep-12 09:10N 38°48' W 075°06'0 0.0
2017-Sep-12 08:58N 38°48' W 075°06'0 0.0
2017-Sep-12 08:28N 38°48' W 075°06'0 0.0
2017-Sep-12 07:58N 38°48' W 075°06'0 0.0
2017-Sep-12 07:28N 38°48' W 075°06'0 0.0
2017-Sep-12 06:58N 38°48' W 075°06'0 0.0
2017-Sep-12 06:13N 38°48' W 075°06'0 0.0
2017-Sep-12 05:01N 38°48' W 075°06'0 0.0
2017-Sep-12 04:58N 38°48' W 075°06'0 0.0
2017-Sep-12 04:28N 38°48' W 075°06'0 0.0
2017-Sep-12 03:52N 38°48' W 075°06'0 0.0
2017-Sep-12 03:19N 38°48' W 075°06'0 0.0
2017-Sep-12 02:58N 38°48' W 075°06'0 0.0
2017-Sep-12 02:04N 38°48' W 075°06'0 0.0
2017-Sep-12 01:55N 38°48' W 075°06'53 3.8
2017-Sep-11 12:01N 39°20' W 074°12'0 6.5
2017-Sep-11 11:58N 39°20' W 074°12'3 6.5
2017-Sep-11 11:28N 39°22' W 074°09'3 6.6
2017-Sep-11 10:57N 39°24' W 074°06'3 6.6
2017-Sep-11 10:28N 39°27' W 074°03'  

Dump ship's entire track history